Time;durP1;ratioP1;P1;durP2;ratioP2;P2;SDS_P1;SDS_P2;PMS_P1;PMS_P2;Temp;Humidity;BMP_temperature;BMP_pressure;BME280_temperature;BME280_humidity;BME280_pressure;Samples;Min_cycle;Max_cycle;Signal;HPM_P1;HPM_P2
2021/12/28 00:04:12;;;;;;;24.80;14.98;;;;;;;1.46;100.00;96977.03;10502913;28;20107;-60
2021/12/28 00:09:15;;;;;;;23.90;14.70;;;;;;;1.50;100.00;96973.09;10498639;28;20139;-56
2021/12/28 00:14:22;;;;;;;24.50;15.25;;;;;;;1.54;100.00;96968.34;10501553;28;20040;-62
2021/12/28 00:19:25;;;;;;;25.50;14.70;;;;;;;1.62;100.00;96965.00;10496425;28;20040;-63
2021/12/28 00:24:28;;;;;;;24.38;15.35;;;;;;;1.63;100.00;96961.34;10502108;28;20072;-61
2021/12/28 00:29:32;;;;;;;28.85;16.70;;;;;;;1.65;100.00;96959.41;10499125;28;20131;-63
2021/12/28 00:34:37;;;;;;;28.77;16.55;;;;;;;1.67;100.00;96960.09;10494308;28;20056;-63
2021/12/28 00:39:40;;;;;;;25.70;16.08;;;;;;;1.68;100.00;96956.47;10498332;28;20135;-60
2021/12/28 00:44:44;;;;;;;28.70;16.00;;;;;;;1.71;100.00;96956.16;10492309;28;20045;-61
2021/12/28 00:49:48;;;;;;;28.75;16.45;;;;;;;1.76;100.00;96956.59;10507638;28;20052;-62
2021/12/28 00:54:51;;;;;;;26.30;15.98;;;;;;;1.79;100.00;96961.63;10502939;28;20067;-64
2021/12/28 00:59:55;;;;;;;27.20;15.60;;;;;;;1.82;100.00;96965.81;10487775;28;20040;-62
2021/12/28 01:04:58;;;;;;;28.48;16.98;;;;;;;1.83;100.00;96955.03;10495691;28;20064;-58
2021/12/28 01:10:01;;;;;;;28.55;16.38;;;;;;;1.85;100.00;96944.28;10500177;28;20071;-59
2021/12/28 01:15:08;;;;;;;29.40;16.98;;;;;;;1.88;100.00;96948.47;10498658;28;20114;-61
2021/12/28 01:20:14;;;;;;;27.23;16.80;;;;;;;1.90;100.00;96952.66;10498873;28;20745;-61
2021/12/28 01:25:19;;;;;;;29.77;18.13;;;;;;;1.96;100.00;96948.59;10494841;28;20405;-62
2021/12/28 01:30:26;;;;;;;28.05;16.63;;;;;;;1.98;100.00;96933.34;10496642;28;20060;-62
2021/12/28 01:35:31;;;;;;;28.45;17.25;;;;;;;2.01;100.00;96922.44;10497886;28;20515;-63
2021/12/28 01:40:37;;;;;;;29.25;17.67;;;;;;;2.04;100.00;96911.53;10496036;28;20048;-60
2021/12/28 01:45:48;;;;;;;28.02;17.23;;;;;;;2.07;100.00;96900.59;10502482;28;20119;-58
2021/12/28 01:50:54;;;;;;;28.40;17.58;;;;;;;2.07;100.00;96882.00;10500692;28;20048;-61
2021/12/28 01:56:02;;;;;;;31.02;18.13;;;;;;;2.13;100.00;96877.94;10491311;28;20082;-58
2021/12/28 02:01:08;;;;;;;29.63;17.88;;;;;;;2.15;100.00;96876.81;10493184;28;20080;-58
2021/12/28 02:06:12;;;;;;;31.83;17.95;;;;;;;2.18;100.00;96864.19;10495978;28;20431;-62
2021/12/28 02:11:15;;;;;;;33.47;18.70;;;;;;;2.20;100.00;96862.25;10491353;28;20050;-58
2021/12/28 02:16:21;;;;;;;32.92;19.20;;;;;;;2.25;100.00;96862.66;10496392;28;20108;-60
2021/12/28 02:21:26;;;;;;;31.48;17.95;;;;;;;2.28;100.00;96865.03;10502642;28;20040;-58
2021/12/28 02:26:29;;;;;;;31.33;18.92;;;;;;;2.33;100.00;96878.69;10498927;28;20040;-56
2021/12/28 02:31:34;;;;;;;32.50;18.42;;;;;;;2.35;100.00;96873.25;10492326;28;20731;-60
2021/12/28 02:36:38;;;;;;;31.25;18.23;;;;;;;2.38;100.00;96875.59;10507280;28;20389;-59
2021/12/28 02:41:41;;;;;;;29.98;18.65;;;;;;;2.40;100.00;96866.50;10511457;28;20074;-61
2021/12/28 02:46:44;;;;;;;33.03;18.33;;;;;;;2.44;100.00;96864.38;10504990;28;20449;-62
2021/12/28 02:51:49;;;;;;;32.20;18.33;;;;;;;2.52;100.00;96868.94;10507905;28;20059;-62
2021/12/28 02:56:52;;;;;;;30.85;17.65;;;;;;;2.55;100.00;96865.97;10496575;28;20048;-59
2021/12/28 03:01:55;;;;;;;29.13;16.45;;;;;;;2.60;100.00;96869.03;10501244;28;20131;-57
2021/12/28 03:07:00;;;;;;;28.27;16.05;;;;;;;2.64;100.00;96875.72;10495198;28;20041;-58
2021/12/28 03:12:03;;;;;;;26.30;16.48;;;;;;;2.65;100.00;96847.31;10505000;28;20045;-61
2021/12/28 03:17:07;;;;;;;27.95;16.27;;;;;;;2.69;100.00;96844.19;10506765;28;20036;-60
2021/12/28 03:22:11;;;;;;;25.52;15.90;;;;;;;2.72;100.00;96840.38;10506329;28;20122;-63
2021/12/28 03:27:14;;;;;;;22.98;14.77;;;;;;;2.78;100.00;96827.31;10500855;28;20082;-56
2021/12/28 03:32:17;;;;;;;24.55;15.25;;;;;;;2.79;100.00;96833.50;10500644;28;20062;-60
2021/12/28 03:37:22;;;;;;;23.25;15.07;;;;;;;2.80;100.00;96826.34;10506217;28;20115;-58
2021/12/28 03:42:25;;;;;;;23.88;14.77;;;;;;;2.81;100.00;96823.56;10497290;28;20568;-59
2021/12/28 03:47:28;;;;;;;24.13;14.80;;;;;;;2.85;100.00;96829.41;10506904;28;20040;-62
2021/12/28 03:52:39;;;;;;;25.30;15.15;;;;;;;2.87;100.00;96833.56;10505605;28;20509;-59
2021/12/28 03:57:44;;;;;;;22.67;14.63;;;;;;;2.85;100.00;96829.41;10498140;28;20093;-57
2021/12/28 04:02:47;;;;;;;22.50;14.18;;;;;;;2.88;100.00;96831.75;10494715;28;20072;-63
2021/12/28 04:07:52;;;;;;;23.98;14.52;;;;;;;2.84;100.00;96822.41;10503687;28;20040;-57
2021/12/28 04:12:59;;;;;;;24.23;13.73;;;;;;;2.84;100.00;96825.06;10507385;28;20071;-60
2021/12/28 04:18:02;;;;;;;18.23;12.95;;;;;;;2.84;100.00;96817.91;10524694;28;20033;-61
2021/12/28 04:23:08;;;;;;;19.98;12.63;;;;;;;2.82;100.00;96805.75;10533613;28;20051;-61
2021/12/28 04:28:11;;;;;;;21.08;14.13;;;;;;;2.83;100.00;96804.78;10547060;28;20055;-60
2021/12/28 04:33:14;;;;;;;18.98;12.48;;;;;;;2.83;100.00;96805.59;10506694;28;20138;-58
2021/12/28 04:38:20;;;;;;;19.13;12.57;;;;;;;2.84;100.00;96812.59;10512205;28;20048;-62
2021/12/28 04:43:23;;;;;;;20.88;12.82;;;;;;;2.85;100.00;96810.78;10494592;28;20511;-57
2021/12/28 04:48:27;;;;;;;17.27;11.25;;;;;;;2.86;100.00;96796.50;10498117;28;20842;-62
2021/12/28 04:53:31;;;;;;;16.05;10.50;;;;;;;2.87;100.00;96784.88;10492608;28;20042;-59
2021/12/28 04:58:34;;;;;;;16.42;10.70;;;;;;;2.85;100.00;96784.19;10509805;28;20050;-57
2021/12/28 05:03:39;;;;;;;14.73;10.05;;;;;;;2.83;100.00;96778.19;10492323;28;20466;-63
2021/12/28 05:08:44;;;;;;;15.48;10.35;;;;;;;2.80;100.00;96794.44;10501726;28;20443;-57
2021/12/28 05:13:47;;;;;;;19.13;11.00;;;;;;;2.79;100.00;96788.28;10500056;28;20055;-58
2021/12/28 05:18:50;;;;;;;15.43;9.73;;;;;;;2.74;100.00;96775.47;10459688;28;20061;-59
2021/12/28 05:23:55;;;;;;;16.02;10.25;;;;;;;2.73;100.00;96768.47;10447799;28;20049;-62
2021/12/28 05:28:58;;;;;;;16.27;10.00;;;;;;;2.71;100.00;96754.47;10455637;28;20068;-58
2021/12/28 05:34:02;;;;;;;14.85;9.77;;;;;;;2.69;100.00;96769.75;10455306;28;20162;-64
2021/12/28 05:39:06;;;;;;;15.15;10.20;;;;;;;2.72;100.00;96771.25;10458663;28;20062;-58
2021/12/28 05:44:10;;;;;;;15.48;9.88;;;;;;;2.73;100.00;96771.13;10455820;28;20044;-61
2021/12/28 05:49:13;;;;;;;14.10;9.55;;;;;;;2.74;100.00;96767.47;10447670;28;20052;-61
2021/12/28 05:54:19;;;;;;;17.08;10.48;;;;;;;2.79;100.00;96764.34;10444490;28;20064;-59
2021/12/28 05:59:22;;;;;;;13.90;9.13;;;;;;;2.86;100.00;96770.72;10438771;28;20139;-62
2021/12/28 06:04:25;;;;;;;12.52;8.70;;;;;;;2.86;100.00;96744.13;10455975;28;20045;-61
2021/12/28 06:09:30;;;;;;;15.38;9.43;;;;;;;2.88;100.00;96742.16;10443883;28;20405;-63
2021/12/28 06:14:33;;;;;;;15.93;9.50;;;;;;;2.91;100.00;96746.31;10449284;28;20041;-60
2021/12/28 06:19:36;;;;;;;13.23;8.75;;;;;;;2.94;100.00;96746.03;10442227;28;20048;-56
2021/12/28 06:24:41;;;;;;;14.80;9.43;;;;;;;2.97;100.00;96748.38;10483253;28;20114;-59
2021/12/28 06:29:44;;;;;;;18.90;9.70;;;;;;;2.99;100.00;96738.41;10473452;28;20049;-60
2021/12/28 06:34:47;;;;;;;15.40;8.90;;;;;;;3.03;100.00;96742.41;10442994;28;20044;-59
2021/12/28 06:39:52;;;;;;;20.52;9.98;;;;;;;3.07;100.00;96737.63;10446447;28;20060;-64
2021/12/28 06:44:55;;;;;;;20.33;10.75;;;;;;;3.11;100.00;96743.50;10443873;28;20033;-58
2021/12/28 06:49:58;;;;;;;23.17;10.50;;;;;;;3.17;100.00;96740.19;10454921;28;20524;-53
2021/12/28 06:55:13;;;;;;;18.27;11.10;;;;;;;3.22;100.00;96741.38;10443523;28;20591;-64
2021/12/28 07:00:19;;;;;;;22.90;11.15;;;;;;;3.25;100.00;96742.91;10449760;28;20126;-59
2021/12/28 07:05:22;;;;;;;21.58;11.35;;;;;;;3.30;100.00;96742.41;10461657;28;20041;-58
2021/12/28 07:10:26;;;;;;;19.10;10.90;;;;;;;3.29;100.00;96746.09;10464425;28;20564;-61
2021/12/28 07:15:29;;;;;;;17.88;10.52;;;;;;;3.30;100.00;96742.41;10470885;28;20130;-55
2021/12/28 07:20:32;;;;;;;23.27;11.70;;;;;;;3.30;100.00;96748.59;10455250;28;20041;-58
2021/12/28 07:25:37;;;;;;;22.83;11.48;;;;;;;3.31;100.00;96750.28;10458404;28;20033;-55
2021/12/28 07:30:40;;;;;;;21.58;11.30;;;;;;;3.31;100.00;96755.59;10456279;28;20055;-57
2021/12/28 07:35:43;;;;;;;23.67;11.43;;;;;;;3.33;100.00;96758.94;10464800;28;20061;-68
2021/12/28 07:40:48;;;;;;;22.88;11.65;;;;;;;3.35;100.00;96746.28;10458497;28;20489;-55
2021/12/28 07:45:51;;;;;;;26.25;11.70;;;;;;;3.39;100.00;96752.97;10457665;28;20036;-56
2021/12/28 07:50:54;;;;;;;22.73;11.52;;;;;;;3.42;100.00;96757.13;10458112;28;20041;-58
2021/12/28 07:55:59;;;;;;;27.35;12.00;;;;;;;3.46;100.00;96747.03;10450518;28;20037;-55
2021/12/28 08:01:03;;;;;;;27.25;12.82;;;;;;;3.49;100.00;96742.22;10452703;28;20093;-59
2021/12/28 08:06:06;;;;;;;27.27;12.85;;;;;;;3.54;100.00;96736.41;10452419;28;20059;-60
2021/12/28 08:11:11;;;;;;;26.63;12.90;;;;;;;3.60;100.00;96738.44;10457541;28;20052;-57
2021/12/28 08:16:15;;;;;;;28.38;12.00;;;;;;;3.62;100.00;96714.31;10458271;28;20124;-62
2021/12/28 08:21:19;;;;;;;29.08;12.20;;;;;;;3.69;100.00;96724.19;10453464;28;20072;-59
2021/12/28 08:26:24;;;;;;;23.50;11.23;;;;;;;3.74;100.00;96720.19;10455709;28;20098;-59
2021/12/28 08:31:27;;;;;;;22.75;11.52;;;;;;;3.78;100.00;96703.72;10449607;28;20506;-62
2021/12/28 08:36:30;;;;;;;24.73;11.40;;;;;;;3.81;100.00;96703.41;10452332;28;20387;-58
2021/12/28 08:41:35;;;;;;;27.20;11.43;;;;;;;3.85;100.00;96701.25;10445572;28;20132;-64
2021/12/28 08:46:39;;;;;;;20.58;9.82;;;;;;;3.91;100.00;96699.78;10467674;28;20041;-61
2021/12/28 08:51:42;;;;;;;21.75;10.05;;;;;;;3.93;100.00;96701.31;10451298;28;20045;-62
2021/12/28 08:56:50;;;;;;;27.63;9.38;;;;;;;3.98;100.00;96692.81;10459056;28;20307;-61
2021/12/28 09:01:56;;;;;;;22.95;8.77;;;;;;;4.03;100.00;96687.81;10458391;28;20051;-61
2021/12/28 09:06:59;;;;;;;23.23;8.88;;;;;;;4.08;100.00;96693.50;10453156;28;20551;-61
2021/12/28 09:12:05;;;;;;;20.27;9.48;;;;;;;4.16;100.00;96674.84;10455136;28;20038;-62
2021/12/28 09:17:08;;;;;;;17.73;8.43;;;;;;;4.15;100.00;96678.53;10451639;28;20064;-60
2021/12/28 09:22:12;;;;;;;21.63;8.85;;;;;;;4.15;100.00;96681.19;10448564;28;20512;-61
2021/12/28 09:34:10;;;;;;;18.98;9.48;;;;;;;4.13;100.00;96669.84;10436992;28;20044;-61
2021/12/28 09:39:31;;;;;;;19.60;10.60;;;;;;;3.98;100.00;96669.66;10451458;28;20076;-59
2021/12/28 09:44:38;;;;;;;20.08;10.73;;;;;;;4.01;100.00;96672.00;10451716;28;20098;-61
2021/12/28 09:49:47;;;;;;;20.23;11.10;;;;;;;3.97;100.00;96664.50;10443879;28;20041;-59
2021/12/28 09:54:51;;;;;;;21.30;10.77;;;;;;;3.95;100.00;96667.31;10455909;28;20053;-61
2021/12/28 09:59:55;;;;;;;22.50;10.95;;;;;;;3.90;100.00;96661.66;10454342;28;20103;-61
2021/12/28 10:05:04;;;;;;;16.58;10.15;;;;;;;3.90;100.00;96653.66;10447953;28;20044;-60
2021/12/28 10:10:09;;;;;;;18.27;11.20;;;;;;;3.89;100.00;96645.81;10455705;28;20098;-61
2021/12/28 10:15:15;;;;;;;20.88;10.70;;;;;;;3.87;100.00;96630.00;10449165;28;20079;-60
2021/12/28 10:20:23;;;;;;;17.60;10.35;;;;;;;3.90;100.00;96623.50;10456500;28;20049;-60
2021/12/28 10:25:30;;;;;;;17.88;10.38;;;;;;;3.98;100.00;96627.03;10447869;28;20041;-59
2021/12/28 10:30:38;;;;;;;17.98;9.90;;;;;;;4.04;100.00;96612.22;10453397;28;20054;-62
2021/12/28 10:35:45;;;;;;;17.55;9.27;;;;;;;4.15;100.00;96609.22;10454134;28;20036;-59
2021/12/28 10:40:51;;;;;;;15.43;7.97;;;;;;;4.29;100.00;96605.06;10466652;28;20045;-55
2021/12/28 10:46:00;;;;;;;13.18;8.23;;;;;;;4.43;100.00;96600.91;10449184;28;20041;-60
2021/12/28 10:51:09;;;;;;;14.07;7.05;;;;;;;4.53;100.00;96591.91;10450499;28;20788;-59
2021/12/28 10:56:12;;;;;;;11.18;6.30;;;;;;;4.60;100.00;96566.22;10457454;28;20490;-62
2021/12/28 11:01:18;;;;;;;11.10;5.60;;;;;;;4.69;100.00;96551.03;10462800;28;20428;-60
2021/12/28 11:06:27;;;;;;;7.65;5.22;;;;;;;4.80;100.00;96542.66;10453795;28;20544;-56
2021/12/28 11:11:30;;;;;;;10.80;6.57;;;;;;;4.82;100.00;96545.19;10451181;28;20767;-61
2021/12/28 11:16:35;;;;;;;8.23;4.72;;;;;;;4.93;100.00;96521.59;10494402;28;20520;-58
2021/12/28 11:21:41;;;;;;;8.82;4.22;;;;;;;4.99;100.00;96513.94;10451740;28;20052;-58
2021/12/28 11:26:47;;;;;;;5.97;4.00;;;;;;;5.13;100.00;96497.16;10450118;28;20043;-62
2021/12/28 11:31:53;;;;;;;5.53;3.58;;;;;;;5.35;100.00;96478.72;10457150;28;20299;-61
2021/12/28 11:37:01;;;;;;;6.20;3.70;;;;;;;5.49;100.00;96467.25;10467412;28;20362;-61
2021/12/28 11:42:08;;;;;;;4.65;3.00;;;;;;;5.58;100.00;96459.19;10443627;28;20126;-60
2021/12/28 11:47:14;;;;;;;4.70;3.00;;;;;;;5.67;100.00;96469.63;10452414;28;20045;-59
2021/12/28 11:52:21;;;;;;;4.22;3.03;;;;;;;5.76;100.00;96473.06;10453334;28;20166;-61
2021/12/28 11:57:26;;;;;;;4.53;2.78;;;;;;;5.80;100.00;96462.84;10461495;28;20758;-62
2021/12/28 12:02:38;;;;;;;3.50;2.70;;;;;;;5.83;100.00;96465.19;10459468;28;20037;-62
2021/12/28 12:07:44;;;;;;;3.65;2.78;;;;;;;5.88;100.00;96449.41;10456065;28;20511;-62
2021/12/28 12:12:54;;;;;;;4.13;2.60;;;;;;;5.93;100.00;96436.34;10456401;28;20045;-63
2021/12/28 12:18:00;;;;;;;3.55;2.53;;;;;;;5.95;100.00;96412.09;10459186;28;20033;-56
2021/12/28 12:23:14;;;;;;;3.90;2.60;;;;;;;5.95;100.00;96399.59;10453975;28;20037;-58
2021/12/28 12:28:24;;;;;;;4.65;2.58;;;;;;;5.99;100.00;96397.38;10458556;28;20044;-60
2021/12/28 12:33:36;;;;;;;4.60;2.60;;;;;;;5.99;100.00;96386.69;10454486;28;20080;-58
2021/12/28 12:38:41;;;;;;;3.75;2.50;;;;;;;5.98;100.00;96382.34;10444760;28;20045;-59
2021/12/28 12:43:56;;;;;;;3.63;2.65;;;;;;;5.94;100.00;96394.44;10461858;28;20047;-58
2021/12/28 12:49:06;;;;;;;5.53;2.65;;;;;;;5.95;100.00;96382.72;10453001;28;20043;-59
2021/12/28 12:54:19;;;;;;;3.08;2.10;;;;;;;5.83;100.00;96377.00;10448542;28;20040;-61
2021/12/28 12:59:28;;;;;;;3.60;2.40;;;;;;;5.91;100.00;96368.88;10441762;28;20431;-57
2021/12/28 13:04:46;;;;;;;3.35;2.35;;;;;;;5.97;100.00;96370.00;10445784;28;20067;-55
2021/12/28 13:10:01;;;;;;;4.28;2.28;;;;;;;5.98;100.00;96359.16;10455386;28;20592;-59
2021/12/28 13:15:07;;;;;;;2.58;1.80;;;;;;;5.97;100.00;96348.63;10450362;28;20093;-61
2021/12/28 13:20:17;;;;;;;3.80;1.80;;;;;;;6.00;100.00;96314.38;10485390;28;20129;-59
2021/12/28 13:25:27;;;;;;;2.83;1.65;;;;;;;6.04;100.00;96316.69;10451627;28;20467;-57
2021/12/28 13:30:34;;;;;;;1.88;1.30;;;;;;;6.07;100.00;96301.09;10453434;28;21323;-59
2021/12/28 13:35:48;;;;;;;1.92;1.40;;;;;;;6.06;100.00;96291.41;10461173;28;20049;-60
2021/12/28 13:40:56;;;;;;;2.15;1.20;;;;;;;6.12;100.00;96290.69;10457962;28;20055;-60
2021/12/28 13:46:02;;;;;;;1.88;1.23;;;;;;;6.13;100.00;96275.47;10484097;28;20344;-57
2021/12/28 13:51:11;;;;;;;1.50;1.17;;;;;;;6.16;100.00;96275.94;10449861;28;20086;-58
2021/12/28 13:56:17;;;;;;;1.52;1.05;;;;;;;6.17;100.00;96272.22;10457442;28;20119;-61
2021/12/28 14:01:24;;;;;;;1.02;0.90;;;;;;;6.17;100.00;96269.56;10452139;28;20060;-63
2021/12/28 14:06:30;;;;;;;0.88;0.80;;;;;;;6.19;100.00;96263.19;10461198;28;20222;-54
2021/12/28 14:11:38;;;;;;;0.90;0.90;;;;;;;6.21;100.00;96255.81;10449145;28;20045;-56
2021/12/28 14:16:52;;;;;;;1.70;0.90;;;;;;;6.15;100.00;96265.41;10471395;28;20493;-61
2021/12/28 14:21:57;;;;;;;1.77;1.20;;;;;;;6.13;100.00;96273.63;10459341;28;20045;-60
2021/12/28 14:27:07;;;;;;;1.08;0.80;;;;;;;6.06;100.00;96269.22;10466812;28;20045;-54
2021/12/28 14:32:14;;;;;;;1.08;0.95;;;;;;;6.04;100.00;96276.59;10489357;28;20531;-61
2021/12/28 14:37:21;;;;;;;0.60;0.60;;;;;;;6.00;100.00;96270.78;10482525;28;20044;-61
2021/12/28 14:42:30;;;;;;;0.85;0.80;;;;;;;5.96;100.00;96253.41;10488993;28;20049;-60
2021/12/28 14:47:35;;;;;;;1.27;0.90;;;;;;;5.94;100.00;96255.47;10476437;28;20036;-63
2021/12/28 14:52:40;;;;;;;1.42;0.98;;;;;;;5.91;100.00;96250.50;10457453;28;20042;-57
2021/12/28 14:57:47;;;;;;;2.05;1.00;;;;;;;5.88;100.00;96251.69;10490801;28;20056;-57
2021/12/28 15:02:53;;;;;;;1.45;1.00;;;;;;;5.89;100.00;96257.88;10474658;28;20118;-61
2021/12/28 15:08:03;;;;;;;2.65;1.33;;;;;;;5.86;100.00;96251.88;10495633;28;20575;-60
2021/12/28 15:13:10;;;;;;;2.03;1.25;;;;;;;5.83;100.00;96248.75;10451590;28;20076;-60
2021/12/28 15:18:15;;;;;;;1.38;0.95;;;;;;;5.80;100.00;96255.28;10447872;28;20045;-61
2021/12/28 15:23:18;;;;;;;3.53;1.40;;;;;;;5.80;100.00;96247.28;10461574;28;20051;-61
2021/12/28 15:28:25;;;;;;;1.85;1.10;;;;;;;5.81;100.00;96258.78;10454208;28;20072;-58
2021/12/28 15:33:30;;;;;;;1.55;1.27;;;;;;;5.81;100.00;96256.13;10469194;28;20052;-61
2021/12/28 15:38:42;;;;;;;1.98;1.27;;;;;;;5.77;100.00;96239.63;10463573;28;20037;-62
2021/12/28 15:43:47;;;;;;;1.27;1.10;;;;;;;5.77;100.00;96236.94;10458124;28;20060;-61
2021/12/28 15:48:50;;;;;;;1.50;1.10;;;;;;;5.76;100.00;96242.50;10450579;28;20136;-62
2021/12/28 15:53:55;;;;;;;1.58;1.23;;;;;;;5.79;100.00;96242.09;10459754;28;20055;-60
2021/12/28 15:59:00;;;;;;;1.45;1.10;;;;;;;5.80;100.00;96241.09;10459060;28;20429;-62
2021/12/28 16:04:08;;;;;;;1.20;1.10;;;;;;;5.81;100.00;96235.59;10462849;28;20774;-62
2021/12/28 16:09:14;;;;;;;1.30;1.20;;;;;;;5.81;100.00;96227.56;10463357;28;20055;-60
2021/12/28 16:14:19;;;;;;;2.05;1.20;;;;;;;5.82;100.00;96220.38;10467602;28;20127;-60
2021/12/28 16:19:23;;;;;;;2.55;1.05;;;;;;;5.81;100.00;96210.69;10452751;28;20047;-62
2021/12/28 16:24:28;;;;;;;1.17;0.98;;;;;;;5.79;100.00;96205.53;10459852;28;20772;-62
2021/12/28 16:29:33;;;;;;;1.42;1.10;;;;;;;5.79;100.00;96215.38;10456662;28;20045;-61
2021/12/28 16:34:36;;;;;;;1.83;1.60;;;;;;;5.78;100.00;96221.75;10445511;28;20053;-62
2021/12/28 16:39:41;;;;;;;2.90;1.95;;;;;;;5.78;100.00;96241.28;10445118;28;20045;-61
2021/12/28 16:44:46;;;;;;;3.10;2.00;;;;;;;5.76;100.00;96237.97;10466547;28;20048;-60
2021/12/28 16:49:49;;;;;;;1.75;1.48;;;;;;;5.77;100.00;96252.13;10443295;28;20056;-62
2021/12/28 16:54:52;;;;;;;1.92;1.40;;;;;;;5.76;100.00;96242.50;10441824;28;20573;-62
2021/12/28 16:59:57;;;;;;;2.47;1.85;;;;;;;5.77;100.00;96254.81;10454697;28;20045;-60
2021/12/28 17:05:00;;;;;;;2.25;1.83;;;;;;;5.75;100.00;96251.53;10459637;28;20037;-62
2021/12/28 17:10:05;;;;;;;3.60;2.03;;;;;;;5.74;100.00;96257.88;10452853;28;20113;-61
2021/12/28 17:15:11;;;;;;;2.80;1.80;;;;;;;5.73;100.00;96250.88;10474264;28;20497;-61
2021/12/28 17:20:15;;;;;;;2.53;1.50;;;;;;;5.71;100.00;96248.38;10446708;28;20044;-62
2021/12/28 17:25:18;;;;;;;2.92;1.90;;;;;;;5.70;100.00;96238.72;10458004;28;20051;-57
2021/12/28 17:30:23;;;;;;;3.55;1.83;;;;;;;5.70;100.00;96241.41;10452631;28;20044;-60
2021/12/28 17:35:26;;;;;;;2.55;1.88;;;;;;;5.66;100.00;96242.75;10454823;28;20065;-61
2021/12/28 17:40:31;;;;;;;3.22;1.80;;;;;;;5.67;100.00;96245.25;10453579;28;20086;-60
2021/12/28 17:45:35;;;;;;;2.05;1.52;;;;;;;5.68;100.00;96262.13;10452255;28;20510;-63
2021/12/28 17:50:39;;;;;;;3.17;1.92;;;;;;;5.77;100.00;96285.03;10444992;28;20041;-60
2021/12/28 17:55:42;;;;;;;1.98;1.40;;;;;;;5.86;100.00;96299.97;10445533;28;20049;-58
2021/12/28 18:00:48;;;;;;;1.98;1.55;;;;;;;5.91;100.00;96317.31;10445676;28;20045;-61
2021/12/28 18:05:52;;;;;;;1.45;1.30;;;;;;;5.93;100.00;96323.31;10443993;28;20040;-60
2021/12/28 18:10:56;;;;;;;2.90;1.40;;;;;;;5.97;100.00;96316.56;10438851;28;20045;-61
2021/12/28 18:16:01;;;;;;;2.30;1.33;;;;;;;5.98;100.00;96323.56;10450994;28;20045;-64
2021/12/28 18:21:05;;;;;;;3.47;1.00;;;;;;;6.09;100.00;96315.09;10449575;28;20159;-62
2021/12/28 18:26:09;;;;;;;6.50;1.40;;;;;;;6.24;100.00;96298.22;10445547;28;20477;-63
2021/12/28 18:31:13;;;;;;;5.80;1.17;;;;;;;6.32;100.00;96311.50;10444818;28;20132;-63
2021/12/28 18:36:16;;;;;;;8.45;1.55;;;;;;;6.30;100.00;96317.03;10453073;28;20040;-63
2021/12/28 18:41:21;;;;;;;4.80;1.27;;;;;;;6.27;100.00;96335.31;10452806;28;20049;-61
2021/12/28 18:46:25;;;;;;;7.78;1.73;;;;;;;6.34;100.00;96341.56;10452873;28;20037;-64
2021/12/28 18:51:29;;;;;;;9.05;1.80;;;;;;;6.41;100.00;96318.38;10449636;28;20079;-62
2021/12/28 18:56:35;;;;;;;9.27;1.60;;;;;;;6.42;100.00;96328.06;10449937;28;20045;-60
2021/12/28 19:01:57;;;;;;;8.35;1.90;;;;;;;6.31;100.00;96342.75;10450851;28;20052;-63
2021/12/28 19:07:00;;;;;;;9.57;2.95;;;;;;;6.16;100.00;96355.31;10466113;28;20052;-63
2021/12/28 19:12:04;;;;;;;8.90;3.22;;;;;;;6.05;100.00;96369.97;10456336;28;20041;-59
2021/12/28 19:17:10;;;;;;;8.88;3.40;;;;;;;5.89;100.00;96375.44;10459148;28;20044;-63
2021/12/28 19:22:13;;;;;;;7.68;2.60;;;;;;;5.52;100.00;96378.78;10458959;28;20033;-63
2021/12/28 19:27:16;;;;;;;6.65;2.67;;;;;;;5.37;100.00;96391.22;10457791;28;20053;-62
2021/12/28 19:32:21;;;;;;;10.23;2.83;;;;;;;5.24;100.00;96399.84;10454403;28;20425;-60
2021/12/28 19:37:24;;;;;;;6.00;2.42;;;;;;;5.16;100.00;96403.41;10460164;28;20135;-62
2021/12/28 19:42:27;;;;;;;4.20;2.30;;;;;;;5.05;100.00;96412.66;10460016;28;21101;-62
2021/12/28 19:47:32;;;;;;;7.18;2.97;;;;;;;4.98;100.00;96417.03;10453015;28;20052;-63
2021/12/28 19:52:35;;;;;;;10.57;4.05;;;;;;;4.96;100.00;96429.69;10459418;28;20450;-57
2021/12/28 19:57:39;;;;;;;7.20;3.63;;;;;;;4.94;100.00;96421.88;10491465;28;20857;-63
2021/12/28 20:02:43;;;;;;;5.18;2.30;;;;;;;4.97;100.00;96419.88;10456527;28;20061;-63
2021/12/28 20:07:47;;;;;;;6.55;2.30;;;;;;;4.97;100.00;96422.53;10462614;28;20055;-63
2021/12/28 20:12:52;;;;;;;9.05;2.20;;;;;;;4.99;100.00;96428.53;10465362;28;20124;-64
2021/12/28 20:17:57;;;;;;;4.85;2.40;;;;;;;5.03;100.00;96424.50;10458573;28;20053;-54
2021/12/28 20:23:01;;;;;;;5.38;2.42;;;;;;;5.09;100.00;96419.28;10458965;28;20049;-65
2021/12/28 20:28:06;;;;;;;6.53;2.63;;;;;;;5.12;100.00;96412.75;10461960;28;20049;-61
2021/12/28 20:33:12;;;;;;;7.05;2.88;;;;;;;5.19;100.00;96415.56;10451546;28;20048;-57
2021/12/28 20:38:15;;;;;;;9.43;2.80;;;;;;;5.21;100.00;96419.72;10488987;28;20053;-58
2021/12/28 20:43:18;;;;;;;12.70;2.70;;;;;;;5.25;100.00;96413.00;10466972;28;20076;-54
2021/12/28 20:48:23;;;;;;;9.23;2.92;;;;;;;5.27;100.00;96409.34;10456811;28;20060;-64
2021/12/28 20:53:27;;;;;;;6.78;2.30;;;;;;;5.30;100.00;96406.31;10455540;28;20048;-56
2021/12/28 20:58:30;;;;;;;12.48;2.88;;;;;;;5.35;100.00;96414.63;10457837;28;20056;-57
2021/12/28 21:03:35;;;;;;;12.05;2.92;;;;;;;5.42;100.00;96418.25;10470653;28;20075;-56
2021/12/28 21:08:38;;;;;;;7.90;2.30;;;;;;;5.52;100.00;96407.34;10463649;28;20111;-57
2021/12/28 21:13:41;;;;;;;12.93;2.33;;;;;;;5.61;100.00;96416.09;10468507;28;20051;-59
2021/12/28 21:18:46;;;;;;;15.65;2.40;;;;;;;5.66;100.00;96406.53;10451762;28;20033;-56
2021/12/28 21:23:52;;;;;;;11.27;2.35;;;;;;;5.71;100.00;96427.34;10456141;28;20045;-60
2021/12/28 21:28:55;;;;;;;12.05;2.80;;;;;;;5.73;100.00;96424.53;10455777;28;20413;-54
2021/12/28 21:34:00;;;;;;;8.68;2.45;;;;;;;5.75;100.00;96435.84;10451295;28;20061;-56
2021/12/28 21:39:04;;;;;;;10.35;2.60;;;;;;;5.74;100.00;96453.72;10456333;28;20131;-61
2021/12/28 21:44:07;;;;;;;12.43;2.60;;;;;;;5.72;100.00;96453.06;10460761;28;20037;-58
2021/12/28 21:49:11;;;;;;;12.25;2.42;;;;;;;5.76;100.00;96459.72;10456251;28;20071;-65
2021/12/28 21:54:17;;;;;;;12.82;2.60;;;;;;;5.79;100.00;96459.38;10448812;28;20057;-61
2021/12/28 21:59:21;;;;;;;9.45;1.92;;;;;;;5.78;100.00;96463.03;10454653;28;20580;-57
2021/12/28 22:04:28;;;;;;;15.93;2.25;;;;;;;5.78;100.00;96459.53;10445291;28;20048;-56
2021/12/28 22:09:37;;;;;;;12.60;2.10;;;;;;;5.74;100.00;96456.38;10440553;28;20134;-59
2021/12/28 22:14:42;;;;;;;11.63;2.30;;;;;;;5.71;100.00;96460.25;10444106;28;20056;-62
2021/12/28 22:19:47;;;;;;;9.23;2.30;;;;;;;5.68;100.00;96449.09;10444061;28;20037;-61
2021/12/28 22:24:50;;;;;;;12.65;2.60;;;;;;;5.64;100.00;96453.97;10443965;28;20045;-58
2021/12/28 22:29:53;;;;;;;14.98;3.20;;;;;;;5.61;100.00;96448.13;10442398;28;20485;-59
2021/12/28 22:34:58;;;;;;;13.05;2.63;;;;;;;5.55;100.00;96442.53;10447815;28;20413;-61
2021/12/28 22:40:02;;;;;;;14.93;2.80;;;;;;;5.54;100.00;96437.34;10445222;28;20051;-59
2021/12/28 22:45:06;;;;;;;10.18;2.60;;;;;;;5.53;100.00;96449.03;10446150;28;20043;-59
2021/12/28 22:50:12;;;;;;;8.73;2.20;;;;;;;5.55;100.00;96455.88;10450176;28;20497;-55
2021/12/28 22:55:15;;;;;;;11.00;2.30;;;;;;;5.52;100.00;96461.56;10448970;28;20490;-58
2021/12/28 23:00:22;;;;;;;13.55;2.47;;;;;;;5.51;100.00;96462.56;10458469;28;20056;-60
2021/12/28 23:05:41;;;;;;;13.98;2.40;;;;;;;5.53;100.00;96468.56;10457613;28;20146;-66
2021/12/28 23:10:45;;;;;;;;;;;;;;;5.48;100.00;96468.25;10465578;28;20561;-54
2021/12/28 23:15:48;;;;;;;13.90;2.30;;;;;;;5.50;100.00;96471.59;10460176;28;19935;-58
2021/12/28 23:20:55;;;;;;;12.05;2.38;;;;;;;5.50;100.00;96474.25;10464186;28;20063;-61
2021/12/28 23:26:00;;;;;;;15.00;2.40;;;;;;;5.50;100.00;96484.94;10470813;28;20041;-59
2021/12/28 23:31:05;;;;;;;14.02;2.40;;;;;;;5.49;100.00;96487.81;10456082;28;20416;-63